»·PEaware :: GDS55 KTEX-KPSP

GDS55 :: KTEX-KPSP

FLIGHT INFORMATION

Flight Status: Arrived
Operator: Unknown
More flights by this operator :: More flights under this callsign
Pilot: Gabor H. (24209)
Aircraft: Unknown
(PC24)
More flights by this aircraft type
Origin: KTEX Telluride Regl
United States
Destination: KPSP Palm Springs Intl
United States
More flights between these airports :: More routes between these airports
Route: +ETL EED SBONO1
File this flight plan on PilotEdge
Remarks:
Altitude:
(Current/Filed)
40,000ft
Speed:
(Current/Filed)
460kts
Departed: 25-Apr-19 12:29 PM
Arrived: 25-Apr-19 01:48 PM
Distance/Time
Traveled:
485nm/1:19
Distance/Time
To Go:
Arrived

Flight Plot

Page will automatically refresh every two minutes.


Map Options




Map Legend


Flown Route
Filed Route
Departure Airport
Arrival Airport
Navaid (VOR, NDB)
Fix

Horizontal Profiles

Position Reports

Time Latitude Longitude Heading Altitude Ground
Speed
25-Apr-19 12:07 37.954204 -107.902144 105 9083ft 0kts
25-Apr-19 12:08 37.954204 -107.902144 105 9083ft 0kts
25-Apr-19 12:09 37.954204 -107.902144 105 9083ft 0kts
25-Apr-19 12:10 37.954204 -107.902144 105 9083ft 0kts
25-Apr-19 12:11 37.954204 -107.902144 105 9083ft 0kts
25-Apr-19 12:12 37.954204 -107.902144 105 9083ft 0kts
25-Apr-19 12:13 37.954204 -107.902144 105 9083ft 0kts
25-Apr-19 12:14 37.954204 -107.902144 105 9083ft 0kts
25-Apr-19 12:15 37.954204 -107.902144 105 9083ft 0kts
25-Apr-19 12:16 37.954204 -107.902144 105 9083ft 0kts
25-Apr-19 12:17 37.954204 -107.902144 105 9083ft 0kts
25-Apr-19 12:18 37.954204 -107.902144 105 9083ft 0kts
25-Apr-19 12:19 37.954204 -107.902143 105 9083ft 0kts
25-Apr-19 12:20 37.954203 -107.902141 105 9083ft 0kts
25-Apr-19 12:21 37.954203 -107.902139 105 9083ft 0kts
25-Apr-19 12:22 37.954081 -107.902091 215 9083ft 0kts
25-Apr-19 12:23 37.953638 -107.902170 107 9083ft 11kts
25-Apr-19 12:24 37.952841 -107.898762 103 9083ft 8kts
25-Apr-19 12:25 37.952384 -107.896821 133 9083ft 0kts
25-Apr-19 12:26 37.952356 -107.896784 134 9083ft 1kts
25-Apr-19 12:27 37.951463 -107.897287 281 9083ft 5kts
25-Apr-19 12:28 37.961615 -107.943646 286 9893ft 207kts
25-Apr-19 12:29 37.980743 -108.019000 288 12639ft 244kts
25-Apr-19 12:30 38.001980 -108.104139 287 15672ft 268kts
25-Apr-19 12:31 38.026084 -108.202020 287 17671ft 329kts
25-Apr-19 12:32 38.007449 -108.325091 245 20233ft 387kts
25-Apr-19 12:33 37.951574 -108.445797 241 23530ft 407kts
25-Apr-19 12:34 37.890240 -108.570378 241 27539ft 427kts
25-Apr-19 12:35 37.826191 -108.700823 241 31545ft 441kts
25-Apr-19 12:36 37.761894 -108.831793 242 35547ft 431kts
25-Apr-19 12:37 37.699406 -108.959256 242 39081ft 422kts
25-Apr-19 12:38 37.637783 -109.084914 241 40225ft 422kts
25-Apr-19 12:39 37.575776 -109.210974 241 40287ft 424kts
25-Apr-19 12:40 37.513407 -109.337184 241 40294ft 425kts
25-Apr-19 12:41 37.450606 -109.463720 241 40296ft 425kts
25-Apr-19 12:42 37.387888 -109.589581 241 40290ft 425kts
25-Apr-19 12:43 37.325033 -109.715240 241 40283ft 425kts
25-Apr-19 12:44 37.262045 -109.840690 241 40274ft 425kts
25-Apr-19 12:45 37.198924 -109.965933 241 40262ft 425kts
25-Apr-19 12:46 37.135504 -110.091321 240 40257ft 424kts
25-Apr-19 12:47 37.072208 -110.215970 240 40245ft 424kts
25-Apr-19 12:48 37.008846 -110.340270 240 40233ft 424kts
25-Apr-19 12:49 36.945398 -110.464296 240 40221ft 423kts
25-Apr-19 12:50 36.881647 -110.588461 240 40222ft 423kts
25-Apr-19 12:51 36.817921 -110.712115 240 40213ft 424kts
25-Apr-19 12:53 36.754054 -110.835586 240 40200ft 423kts
25-Apr-19 12:54 36.690096 -110.958778 240 40195ft 423kts
25-Apr-19 12:55 36.626004 -111.081782 239 40187ft 423kts
25-Apr-19 12:56 36.561572 -111.204989 239 40188ft 423kts
25-Apr-19 12:57 36.497235 -111.327573 239 40194ft 423kts
25-Apr-19 12:58 36.432772 -111.449954 239 40204ft 423kts
25-Apr-19 12:59 36.368183 -111.572135 239 40220ft 424kts
25-Apr-19 13:00 36.303164 -111.694697 239 40240ft 424kts
25-Apr-19 13:01 36.238201 -111.816705 239 40264ft 424kts
25-Apr-19 13:02 36.173099 -111.938536 239 40279ft 424kts
25-Apr-19 13:03 36.107903 -112.060179 238 40291ft 424kts
25-Apr-19 13:04 36.042542 -112.181626 238 40296ft 424kts
25-Apr-19 13:05 35.978942 -112.299367 238 40286ft 424kts
25-Apr-19 13:06 35.913398 -112.420310 238 40285ft 424kts
25-Apr-19 13:07 35.847745 -112.541041 238 40278ft 424kts
25-Apr-19 13:08 35.781906 -112.661695 237 40263ft 424kts
25-Apr-19 13:09 35.715918 -112.782200 237 40240ft 425kts
25-Apr-19 13:09 35.660693 -112.882731 237 40225ft 425kts
25-Apr-19 13:11 35.583168 -113.023370 237 40204ft 426kts
25-Apr-19 13:12 35.516655 -113.143575 237 40174ft 426kts
25-Apr-19 13:12 35.461098 -113.243664 237 40160ft 426kts
25-Apr-19 13:14 35.382900 -113.384066 237 40142ft 426kts
25-Apr-19 13:15 35.315881 -113.503951 237 40129ft 427kts
25-Apr-19 13:15 35.259885 -113.603811 237 40118ft 427kts
25-Apr-19 13:16 35.192653 -113.723334 236 40101ft 426kts
25-Apr-19 13:18 35.114160 -113.862377 236 40104ft 426kts
25-Apr-19 13:18 35.057882 -113.961741 236 40093ft 427kts
25-Apr-19 13:19 34.990377 -114.080601 236 38295ft 426kts
25-Apr-19 13:20 34.922306 -114.200012 235 36095ft 430kts
25-Apr-19 13:21 34.853293 -114.320691 235 33905ft 438kts
25-Apr-19 13:22 34.782872 -114.443357 235 31803ft 445kts
25-Apr-19 13:23 34.706482 -114.563637 233 29709ft 453kts
25-Apr-19 13:24 34.627180 -114.682930 232 27605ft 450kts
25-Apr-19 13:25 34.549086 -114.799832 232 25262ft 442kts
25-Apr-19 13:26 34.472484 -114.914470 232 22983ft 433kts
25-Apr-19 13:27 34.397924 -115.025965 232 20766ft 419kts
25-Apr-19 13:28 34.325367 -115.134263 231 19288ft 409kts
25-Apr-19 13:29 34.254144 -115.240312 231 17766ft 400kts
25-Apr-19 13:30 34.184626 -115.343526 231 16258ft 392kts
25-Apr-19 13:31 34.116302 -115.444696 230 15045ft 385kts
25-Apr-19 13:32 34.049150 -115.543884 230 13904ft 374kts
25-Apr-19 13:33 33.984723 -115.638936 230 12800ft 360kts
25-Apr-19 13:34 33.927179 -115.731439 243 11778ft 325kts
25-Apr-19 13:35 33.909092 -115.830129 263 11044ft 291kts
25-Apr-19 13:36 33.903324 -115.926393 264 11011ft 287kts
25-Apr-19 13:37 33.871505 -116.010016 223 9560ft 281kts
25-Apr-19 13:38 33.815473 -116.072354 221 7618ft 267kts
25-Apr-19 13:39 33.779284 -116.141960 272 6146ft 262kts
25-Apr-19 13:40 33.792586 -116.226335 281 4175ft 254kts
25-Apr-19 13:41 33.807194 -116.304430 281 3993ft 245kts
25-Apr-19 13:42 33.822112 -116.384297 281 4003ft 236kts
25-Apr-19 13:43 33.837999 -116.451716 296 3014ft 193kts
25-Apr-19 13:44 33.869174 -116.496000 311 1862ft 151kts
25-Apr-19 13:45 33.864819 -116.535771 191 1452ft 138kts
25-Apr-19 13:46 33.834132 -116.511623 142 528ft 116kts
25-Apr-19 13:47 33.825652 -116.503066 118 482ft 19kts
25-Apr-19 13:48 33.825446 -116.502645 120 482ft 7kts
25-Apr-19 13:49 33.820675 -116.497994 144 482ft 19kts
25-Apr-19 13:50 33.822908 -116.497521 323 482ft 24kts
25-Apr-19 13:51 33.824092 -116.498267 53 482ft 0kts
25-Apr-19 13:52 33.824092 -116.498267 53 482ft 0kts
25-Apr-19 13:53 33.824092 -116.498267 53 482ft 0kts
25-Apr-19 13:54 33.824092 -116.498267 53 482ft 0kts

Navigation Log

Ident Type
Flight plan parsing failed, navigation log unavailable